Time;durP1;ratioP1;P1;durP2;ratioP2;P2;SDS_P1;SDS_P2;PMS_P1;PMS_P2;Temp;Humidity;BMP_temperature;BMP_pressure;BME280_temperature;BME280_humidity;BME280_pressure;Samples;Min_cycle;Max_cycle;Signal;HPM_P1;HPM_P2
2021/05/01 00:01:33;;;;;;;30.30;26.92;;;8.70;99.90;;;;;;5093944;28;20692;-40
2021/05/01 00:04:00;;;;;;;28.13;25.27;;;8.60;99.90;;;;;;5093190;28;20375;-40
2021/05/01 00:06:26;;;;;;;29.75;26.65;;;8.60;99.90;;;;;;5093657;28;20282;-37
2021/05/01 00:08:53;;;;;;;29.67;26.58;;;8.60;99.90;;;;;;5093928;28;20207;-38
2021/05/01 00:11:22;;;;;;;27.70;24.52;;;8.60;99.90;;;;;;5093899;28;20261;-38
2021/05/01 00:13:55;;;;;;;28.05;24.85;;;8.50;99.90;;;;;;5093904;28;20211;-38
2021/05/01 00:16:23;;;;;;;30.95;27.58;;;8.50;99.90;;;;;;5093737;28;20652;-38
2021/05/01 00:18:50;;;;;;;28.08;25.00;;;8.50;99.90;;;;;;5093667;28;20242;-38
2021/05/01 00:21:17;;;;;;;29.55;26.35;;;8.50;99.90;;;;;;5093463;28;20732;-38
2021/05/01 00:23:44;;;;;;;28.80;25.83;;;8.50;99.90;;;;;;5093662;28;20700;-38
2021/05/01 00:26:11;;;;;;;28.33;25.15;;;8.50;99.90;;;;;;5093395;28;20344;-38
2021/05/01 00:28:39;;;;;;;27.13;24.38;;;8.50;99.90;;;;;;5093530;28;20313;-38
2021/05/01 00:31:07;;;;;;;29.83;26.65;;;8.50;99.90;;;;;;5093464;28;20289;-38
2021/05/01 00:33:34;;;;;;;29.17;25.95;;;8.50;99.90;;;;;;5093688;28;20293;-38
2021/05/01 00:36:01;;;;;;;27.75;23.73;;;8.50;99.90;;;;;;5093540;28;20206;-39
2021/05/01 00:38:28;;;;;;;30.15;26.38;;;8.50;99.90;;;;;;5093421;28;20309;-38
2021/05/01 00:40:55;;;;;;;27.95;25.02;;;8.50;99.90;;;;;;5093391;28;20284;-38
2021/05/01 00:43:22;;;;;;;29.17;25.20;;;8.50;99.90;;;;;;5093361;28;20206;-38
2021/05/01 00:45:50;;;;;;;30.70;26.30;;;8.50;99.90;;;;;;5093092;28;20318;-38
2021/05/01 00:48:17;;;;;;;31.20;26.67;;;8.50;99.90;;;;;;5093306;28;20214;-39
2021/05/01 00:50:44;;;;;;;26.67;23.80;;;8.60;99.90;;;;;;5093036;28;20250;-39
2021/05/01 00:53:12;;;;;;;27.70;24.35;;;8.60;99.90;;;;;;5093252;28;20209;-39
2021/05/01 00:55:41;;;;;;;29.40;24.27;;;8.60;99.90;;;;;;5093132;28;20293;-39
2021/05/01 00:58:09;;;;;;;26.85;24.05;;;8.60;99.90;;;;;;5092977;28;20206;-38
2021/05/01 01:00:57;;;;;;;27.42;24.60;;;8.60;99.90;;;;;;5092939;28;20634;-39
2021/05/01 01:03:25;;;;;;;26.05;23.33;;;8.60;99.90;;;;;;5093009;28;20221;-38
2021/05/01 01:05:52;;;;;;;28.33;25.25;;;8.60;99.90;;;;;;5092651;28;20549;-38
2021/05/01 01:08:19;;;;;;;28.00;25.05;;;8.60;99.90;;;;;;5092905;28;20237;-38
2021/05/01 01:10:46;;;;;;;26.70;23.92;;;8.70;99.90;;;;;;5092636;28;20681;-38
2021/05/01 01:13:13;;;;;;;26.92;24.10;;;8.70;99.90;;;;;;5092809;28;20207;-38
2021/05/01 01:15:40;;;;;;;27.00;24.05;;;8.60;99.90;;;;;;5091902;28;20289;-39
2021/05/01 01:18:07;;;;;;;29.23;26.13;;;8.70;99.90;;;;;;5092572;28;20206;-39
2021/05/01 01:20:35;;;;;;;26.50;23.83;;;8.70;99.90;;;;;;5092688;28;20237;-39
2021/05/01 01:23:03;;;;;;;26.60;23.80;;;8.80;99.90;;;;;;5092566;28;20635;-39
2021/05/01 01:25:31;;;;;;;26.92;24.17;;;9.00;99.90;;;;;;5092348;28;20227;-39
2021/05/01 01:27:59;;;;;;;26.55;23.70;;;9.00;99.90;;;;;;5092780;28;20213;-39
2021/05/01 01:30:29;;;;;;;24.48;21.83;;;9.10;99.90;;;;;;5092456;28;20331;-39
2021/05/01 01:32:56;;;;;;;27.88;24.55;;;9.10;99.90;;;;;;5092484;28;20631;-38
2021/05/01 01:35:23;;;;;;;25.90;23.27;;;9.00;99.90;;;;;;5092482;28;20686;-39
2021/05/01 01:37:51;;;;;;;25.38;22.40;;;9.10;99.90;;;;;;5092043;28;20681;-39
2021/05/01 01:40:22;;;;;;;26.42;23.65;;;9.10;99.90;;;;;;5092487;28;20271;-39
2021/05/01 01:42:49;;;;;;;24.88;22.17;;;9.20;99.90;;;;;;5092523;28;20399;-39
2021/05/01 01:45:18;;;;;;;27.20;23.38;;;9.20;99.90;;;;;;5092102;28;20719;-39
2021/05/01 01:47:45;;;;;;;25.17;22.50;;;9.20;99.90;;;;;;5092123;28;20211;-41
2021/05/01 01:50:14;;;;;;;27.02;23.92;;;9.20;99.90;;;;;;5092102;28;20238;-42
2021/05/01 01:52:46;;;;;;;30.08;26.15;;;9.20;99.90;;;;;;5092081;28;20604;-41
2021/05/01 01:55:16;;;;;;;26.55;23.75;;;9.20;99.90;;;;;;5092231;28;20230;-42
2021/05/01 01:57:44;;;;;;;26.73;24.02;;;9.20;99.90;;;;;;5092010;28;20842;-44
2021/05/01 02:00:14;;;;;;;27.30;24.40;;;9.20;99.90;;;;;;5092151;28;20557;-41
2021/05/01 02:02:41;;;;;;;29.67;26.48;;;9.10;99.90;;;;;;5092005;28;20234;-42
2021/05/01 02:05:10;;;;;;;27.17;24.25;;;9.00;99.90;;;;;;5091542;28;20280;-42
2021/05/01 02:07:37;;;;;;;26.75;23.88;;;9.00;99.90;;;;;;5091976;28;20238;-42
2021/05/01 02:10:06;;;;;;;28.67;24.65;;;8.90;99.90;;;;;;5092277;28;20244;-41
2021/05/01 02:12:37;;;;;;;25.80;23.23;;;8.80;99.90;;;;;;5091991;28;20234;-39
2021/05/01 02:15:09;;;;;;;26.33;23.63;;;8.90;99.90;;;;;;5091767;28;20532;-39
2021/05/01 02:17:37;;;;;;;27.98;23.95;;;8.90;99.90;;;;;;5091822;28;20609;-39
2021/05/01 02:20:07;;;;;;;26.98;24.10;;;8.90;99.90;;;;;;5091982;28;20210;-39
2021/05/01 02:22:34;;;;;;;24.55;21.92;;;8.90;99.90;;;;;;5091934;28;20663;-39
2021/05/01 02:25:01;;;;;;;25.85;23.13;;;8.90;99.90;;;;;;5091831;28;20226;-39
2021/05/01 02:27:28;;;;;;;26.00;23.30;;;8.90;99.90;;;;;;5092105;28;20301;-39
2021/05/01 02:29:55;;;;;;;25.90;23.13;;;8.90;99.90;;;;;;5091479;28;20257;-39
2021/05/01 02:32:23;;;;;;;27.00;24.27;;;8.80;99.90;;;;;;5091533;28;20298;-39
2021/05/01 02:34:50;;;;;;;26.17;21.75;;;8.80;99.90;;;;;;5091398;28;20665;-39
2021/05/01 02:37:17;;;;;;;27.73;23.95;;;8.80;99.90;;;;;;5091905;28;20297;-39
2021/05/01 02:39:44;;;;;;;27.40;24.42;;;8.80;99.90;;;;;;5091854;28;20293;-41
2021/05/01 02:42:11;;;;;;;27.15;24.38;;;8.90;99.90;;;;;;5091769;28;20301;-40
2021/05/01 02:44:37;;;;;;;26.40;23.60;;;9.00;99.90;;;;;;5091698;28;20309;-42
2021/05/01 02:47:05;;;;;;;27.08;24.25;;;9.10;99.90;;;;;;5092043;28;20215;-40
2021/05/01 02:49:33;;;;;;;26.23;23.42;;;9.20;99.90;;;;;;5091936;28;20284;-40
2021/05/01 02:52:00;;;;;;;28.00;25.10;;;9.30;99.90;;;;;;5091788;28;20246;-42
2021/05/01 02:54:27;;;;;;;27.58;24.83;;;9.30;99.90;;;;;;5091824;28;20305;-41
2021/05/01 02:56:54;;;;;;;27.52;24.55;;;9.30;99.90;;;;;;5091822;28;20222;-40
2021/05/01 02:59:21;;;;;;;30.48;27.15;;;9.40;99.90;;;;;;5091655;28;20725;-39
2021/05/01 03:01:48;;;;;;;31.25;27.95;;;9.40;99.90;;;;;;5091934;28;20239;-40
2021/05/01 03:04:15;;;;;;;30.15;26.83;;;9.40;99.90;;;;;;5091704;28;20343;-39
2021/05/01 03:06:43;;;;;;;30.30;27.20;;;9.40;99.90;;;;;;5091458;28;20612;-40
2021/05/01 03:09:10;;;;;;;29.98;26.60;;;9.40;99.90;;;;;;5091641;28;20700;-40
2021/05/01 03:11:36;;;;;;;29.88;26.70;;;9.40;99.90;;;;;;5091589;28;20297;-40
2021/05/01 03:14:04;;;;;;;32.25;28.65;;;9.40;99.90;;;;;;5091870;28;20559;-39
2021/05/01 03:16:31;;;;;;;28.42;25.45;;;9.40;99.90;;;;;;5091551;28;20304;-40
2021/05/01 03:18:58;;;;;;;32.70;28.48;;;9.40;99.90;;;;;;5091745;28;20211;-40
2021/05/01 03:21:25;;;;;;;29.35;25.85;;;9.30;99.90;;;;;;5091639;28;20309;-40
2021/05/01 03:23:54;;;;;;;29.88;26.75;;;9.20;99.90;;;;;;5091464;28;20293;-39
2021/05/01 03:26:20;;;;;;;30.00;26.83;;;9.20;99.90;;;;;;5091375;28;20309;-40
2021/05/01 03:28:47;;;;;;;31.33;26.95;;;9.20;99.90;;;;;;5091639;28;20294;-40
2021/05/01 03:31:15;;;;;;;30.58;27.27;;;9.10;99.90;;;;;;5091382;28;20278;-39
2021/05/01 03:33:42;;;;;;;29.05;25.98;;;9.20;99.90;;;;;;5091576;28;20242;-39
2021/05/01 03:36:09;;;;;;;28.67;25.73;;;9.30;99.90;;;;;;5091225;28;20249;-40
2021/05/01 03:38:36;;;;;;;29.33;26.08;;;9.40;99.90;;;;;;5093212;28;20572;-41
2021/05/01 03:41:04;;;;;;;30.85;27.55;;;9.50;99.90;;;;;;5094803;28;20663;-41
2021/05/01 03:43:31;;;;;;;29.60;26.48;;;9.50;99.90;;;;;;5095126;28;20246;-42
2021/05/01 03:45:58;;;;;;;31.17;27.85;;;9.60;99.90;;;;;;5094764;28;20226;-43
2021/05/01 03:48:26;;;;;;;30.05;26.85;;;9.60;99.90;;;;;;5094821;28;20214;-39
2021/05/01 03:50:53;;;;;;;31.52;28.05;;;9.50;99.90;;;;;;5094743;28;20312;-40
2021/05/01 03:53:21;;;;;;;31.83;28.35;;;9.40;99.90;;;;;;5094599;28;20283;-40
2021/05/01 03:55:48;;;;;;;31.67;28.20;;;9.40;99.90;;;;;;5094923;28;20578;-42
2021/05/01 03:58:16;;;;;;;32.35;28.17;;;9.40;99.90;;;;;;5094789;28;20216;-40
2021/05/01 04:00:43;;;;;;;31.17;27.52;;;9.40;99.90;;;;;;5094541;28;20301;-40
2021/05/01 04:03:10;;;;;;;33.30;29.73;;;9.40;99.90;;;;;;5094266;28;20207;-40
2021/05/01 04:05:37;;;;;;;32.45;28.90;;;9.40;99.90;;;;;;5093849;28;20242;-40
2021/05/01 04:08:04;;;;;;;32.90;27.83;;;9.40;99.90;;;;;;5094048;28;20632;-40
2021/05/01 04:10:33;;;;;;;31.45;27.85;;;9.40;99.90;;;;;;5094529;28;20293;-40
2021/05/01 04:13:00;;;;;;;35.35;31.55;;;9.40;99.90;;;;;;5094653;28;20301;-41
2021/05/01 04:15:28;;;;;;;36.60;32.80;;;9.40;99.90;;;;;;5094306;28;20289;-41
2021/05/01 04:17:55;;;;;;;35.28;30.42;;;9.50;99.90;;;;;;5094326;28;20298;-40
2021/05/01 04:20:23;;;;;;;36.40;31.58;;;9.50;99.90;;;;;;5094266;28;20210;-41
2021/05/01 04:22:51;;;;;;;33.40;29.88;;;9.50;99.90;;;;;;5094352;28;20294;-42
2021/05/01 04:25:18;;;;;;;32.25;28.15;;;9.50;99.90;;;;;;5093935;28;20365;-42
2021/05/01 04:27:45;;;;;;;30.92;27.58;;;9.60;99.90;;;;;;5094316;28;20305;-42
2021/05/01 04:30:13;;;;;;;30.20;27.02;;;9.60;99.90;;;;;;5094067;28;20238;-40
2021/05/01 04:32:41;;;;;;;30.58;27.23;;;9.50;99.90;;;;;;5093971;28;20736;-41
2021/05/01 04:35:09;;;;;;;27.42;24.50;;;9.50;99.90;;;;;;5093867;28;20203;-40
2021/05/01 04:37:36;;;;;;;27.55;24.02;;;9.50;99.90;;;;;;5094018;28;20229;-38
2021/05/01 04:40:04;;;;;;;29.85;26.13;;;9.50;99.90;;;;;;5093627;28;20755;-39
2021/05/01 04:42:31;;;;;;;27.42;24.50;;;9.60;99.90;;;;;;5093802;28;20293;-38
2021/05/01 04:44:58;;;;;;;26.55;23.73;;;9.50;99.90;;;;;;5093546;28;20729;-38
2021/05/01 04:47:25;;;;;;;28.73;25.67;;;9.40;99.90;;;;;;5093525;28;20213;-38
2021/05/01 04:49:53;;;;;;;27.92;24.42;;;9.50;99.90;;;;;;5093432;28;20306;-40
2021/05/01 04:52:20;;;;;;;28.98;25.85;;;9.50;99.90;;;;;;5093764;28;20207;-41
2021/05/01 04:54:47;;;;;;;27.23;24.38;;;9.40;99.90;;;;;;5093736;28;20634;-42
2021/05/01 04:57:14;;;;;;;27.83;24.45;;;9.30;99.90;;;;;;5093537;28;20209;-41
2021/05/01 04:59:43;;;;;;;28.13;25.10;;;9.40;99.90;;;;;;5093269;28;20647;-41
2021/05/01 05:02:10;;;;;;;27.52;24.63;;;9.40;99.90;;;;;;5093388;28;20305;-41
2021/05/01 05:04:37;;;;;;;26.27;23.33;;;9.40;99.90;;;;;;5093282;28;20210;-41
2021/05/01 05:07:04;;;;;;;28.25;25.20;;;9.30;99.90;;;;;;5093135;28;20671;-41
2021/05/01 05:09:32;;;;;;;26.92;24.02;;;9.30;99.90;;;;;;5093314;28;20618;-41
2021/05/01 05:11:59;;;;;;;29.15;26.00;;;9.30;99.90;;;;;;5093298;28;20635;-40
2021/05/01 05:14:26;;;;;;;27.75;24.85;;;9.30;99.90;;;;;;5093145;28;20206;-41
2021/05/01 05:16:53;;;;;;;27.85;24.45;;;9.40;99.90;;;;;;5092980;28;20286;-41
2021/05/01 05:19:20;;;;;;;27.58;24.70;;;9.50;99.90;;;;;;5093242;28;20604;-42
2021/05/01 05:21:47;;;;;;;29.08;26.00;;;9.60;99.90;;;;;;5093100;28;20611;-41
2021/05/01 05:24:15;;;;;;;26.75;23.88;;;9.50;99.90;;;;;;5093190;28;20294;-40
2021/05/01 05:26:42;;;;;;;28.05;24.38;;;9.50;99.90;;;;;;5092875;28;20322;-40
2021/05/01 05:29:11;;;;;;;27.90;24.92;;;9.50;99.90;;;;;;5092693;28;20213;-41
2021/05/01 05:31:38;;;;;;;29.45;25.33;;;9.60;99.90;;;;;;5093111;28;20234;-46
2021/05/01 05:34:05;;;;;;;28.60;25.55;;;9.60;99.90;;;;;;5092905;28;20207;-41
2021/05/01 05:36:32;;;;;;;27.98;25.02;;;9.70;99.90;;;;;;5092716;28;20471;-41
2021/05/01 05:38:58;;;;;;;30.00;26.77;;;9.70;99.90;;;;;;5092578;28;20298;-40
2021/05/01 05:41:28;;;;;;;28.60;25.52;;;9.70;99.90;;;;;;5092463;28;20777;-41
2021/05/01 05:43:55;;;;;;;30.02;26.10;;;9.70;99.90;;;;;;5092432;28;20210;-41
2021/05/01 05:46:22;;;;;;;30.05;26.88;;;9.80;99.90;;;;;;5092662;28;20341;-41
2021/05/01 05:48:49;;;;;;;28.92;25.85;;;9.90;99.90;;;;;;5092576;28;20207;-41
2021/05/01 05:51:16;;;;;;;28.23;24.85;;;10.00;99.90;;;;;;5092449;28;20246;-41
2021/05/01 05:53:47;;;;;;;27.60;24.73;;;10.20;99.90;;;;;;5092399;28;20218;-40
2021/05/01 05:56:14;;;;;;;29.50;25.98;;;10.30;99.90;;;;;;5092091;28;20230;-41
2021/05/01 05:58:42;;;;;;;28.42;25.48;;;10.40;99.90;;;;;;5092359;28;20542;-40
2021/05/01 06:01:11;;;;;;;30.15;26.95;;;10.50;99.90;;;;;;5091384;28;20637;-41
2021/05/01 06:03:40;;;;;;;26.48;23.75;;;10.60;99.90;;;;;;5091937;28;20206;-41
2021/05/01 06:06:12;;;;;;;28.65;25.48;;;10.60;99.90;;;;;;5091719;28;20719;-41
2021/05/01 06:08:39;;;;;;;28.33;25.33;;;10.70;99.90;;;;;;5092070;28;20238;-40
2021/05/01 06:11:09;;;;;;;29.05;26.00;;;10.60;99.90;;;;;;5091853;28;20206;-40
2021/05/01 06:13:36;;;;;;;29.80;26.60;;;10.60;99.90;;;;;;5092043;28;20238;-41
2021/05/01 06:16:05;;;;;;;30.73;27.48;;;10.60;99.90;;;;;;5092032;28;20202;-43
2021/05/01 06:18:35;;;;;;;32.90;28.38;;;10.60;99.90;;;;;;5091894;28;20290;-41
2021/05/01 06:21:03;;;;;;;33.78;27.20;;;10.60;99.90;;;;;;5091734;28;20293;-41
2021/05/01 06:23:30;;;;;;;30.67;27.38;;;10.60;99.90;;;;;;5091747;28;20237;-40
2021/05/01 06:26:02;;;;;;;31.98;27.52;;;10.60;99.90;;;;;;5091640;28;20241;-40
2021/05/01 06:28:29;;;;;;;32.83;26.77;;;10.60;99.90;;;;;;5091959;28;20301;-40
2021/05/01 06:31:00;;;;;;;31.08;27.35;;;10.60;99.90;;;;;;5091823;28;20245;-42
2021/05/01 06:33:28;;;;;;;31.38;26.40;;;10.60;99.90;;;;;;5091694;28;20362;-41
2021/05/01 06:35:56;;;;;;;30.13;26.15;;;10.50;99.90;;;;;;5091666;28;20217;-41
2021/05/01 06:38:24;;;;;;;29.60;26.40;;;10.60;99.90;;;;;;5091518;28;20302;-40
2021/05/01 06:40:55;;;;;;;33.47;28.48;;;10.50;99.90;;;;;;5091634;28;20306;-41
2021/05/01 06:43:35;;;;;;;32.75;28.40;;;10.60;99.90;;;;;;5091597;28;20707;-40
2021/05/01 06:46:03;;;;;;;31.92;28.27;;;10.60;99.90;;;;;;5091654;28;20230;-40
2021/05/01 06:48:34;;;;;;;30.30;26.23;;;10.70;99.90;;;;;;5091485;28;20245;-39
2021/05/01 06:51:02;;;;;;;29.33;26.27;;;10.80;99.90;;;;;;5091769;28;20213;-40
2021/05/01 06:53:30;;;;;;;30.65;25.88;;;10.90;99.90;;;;;;5091372;28;20685;-40
2021/05/01 06:56:01;;;;;;;29.58;26.38;;;10.90;99.90;;;;;;5091550;28;20230;-40
2021/05/01 06:58:30;;;;;;;37.17;28.65;;;10.90;99.90;;;;;;5091580;28;20206;-40
2021/05/01 07:00:59;;;;;;;28.30;24.98;;;11.00;99.90;;;;;;5091336;28;20206;-40
2021/05/01 07:03:28;;;;;;;29.70;26.45;;;11.10;99.90;;;;;;5091588;28;20285;-40
2021/05/01 07:05:58;;;;;;;30.48;27.23;;;11.10;99.90;;;;;;5091389;28;20242;-40
2021/05/01 07:08:25;;;;;;;29.70;26.30;;;11.20;99.90;;;;;;5091399;28;20673;-41
2021/05/01 07:10:53;;;;;;;29.08;25.85;;;11.20;99.90;;;;;;5091381;28;20289;-39
2021/05/01 07:13:21;;;;;;;30.83;27.52;;;11.10;99.90;;;;;;5094734;28;20575;-39
2021/05/01 07:15:48;;;;;;;29.80;25.20;;;11.10;99.90;;;;;;5095227;28;20633;-40
2021/05/01 07:18:17;;;;;;;30.45;26.75;;;11.10;99.90;;;;;;5095034;28;20695;-41
2021/05/01 07:20:44;;;;;;;31.08;26.83;;;11.20;99.90;;;;;;5095137;28;20576;-41
2021/05/01 07:23:12;;;;;;;31.15;26.08;;;11.20;99.90;;;;;;5094811;28;20557;-41
2021/05/01 07:25:39;;;;;;;31.23;27.25;;;11.20;99.90;;;;;;5094837;28;20227;-40
2021/05/01 07:28:10;;;;;;;27.88;24.55;;;11.30;99.90;;;;;;5094736;28;20214;-40
2021/05/01 07:30:39;;;;;;;31.58;27.15;;;11.30;99.90;;;;;;5094830;28;20211;-41
2021/05/01 07:33:12;;;;;;;30.60;25.58;;;11.30;99.90;;;;;;5094672;28;20302;-42
2021/05/01 07:35:41;;;;;;;27.60;24.65;;;11.30;99.90;;;;;;5094628;28;20302;-40
2021/05/01 07:38:13;;;;;;;30.95;24.77;;;11.30;99.90;;;;;;5094360;28;20298;-40
2021/05/01 07:40:41;;;;;;;29.35;25.08;;;11.40;99.90;;;;;;5094468;28;20742;-40
2021/05/01 07:43:08;;;;;;;28.00;24.40;;;11.40;99.90;;;;;;5094574;28;20627;-40
2021/05/01 07:45:36;;;;;;;29.77;26.58;;;11.40;99.90;;;;;;5094264;28;20264;-39
2021/05/01 07:48:08;;;;;;;28.40;23.85;;;11.50;99.90;;;;;;5094370;28;20202;-41
2021/05/01 07:50:36;;;;;;;24.95;21.75;;;11.50;99.90;;;;;;5094478;28;20248;-40
2021/05/01 07:53:04;;;;;;;27.10;23.88;;;11.60;99.90;;;;;;5094091;28;20238;-41
2021/05/01 07:55:32;;;;;;;27.30;24.40;;;11.60;99.90;;;;;;5094079;28;20216;-43
2021/05/01 07:57:59;;;;;;;27.90;24.05;;;11.50;99.90;;;;;;5094359;28;20658;-41
2021/05/01 08:00:26;;;;;;;25.48;22.60;;;11.50;99.90;;;;;;5094313;28;20210;-43
2021/05/01 08:02:53;;;;;;;28.25;24.40;;;11.50;99.90;;;;;;5094087;28;20203;-41
2021/05/01 08:05:21;;;;;;;27.92;24.38;;;11.60;99.90;;;;;;5093699;28;20324;-40
2021/05/01 08:07:48;;;;;;;24.88;22.30;;;11.70;99.90;;;;;;5093804;28;20355;-45
2021/05/01 08:10:16;;;;;;;23.95;21.42;;;11.80;99.90;;;;;;5093617;28;20215;-40
2021/05/01 08:12:43;;;;;;;23.63;21.13;;;11.90;99.90;;;;;;5094016;28;20240;-39
2021/05/01 08:15:12;;;;;;;24.92;22.38;;;11.90;99.90;;;;;;5093712;28;20242;-39
2021/05/01 08:17:40;;;;;;;24.45;21.65;;;12.00;99.90;;;;;;5094205;28;20724;-39
2021/05/01 08:20:09;;;;;;;23.30;20.90;;;12.20;99.90;;;;;;5093752;28;20734;-39
2021/05/01 08:22:36;;;;;;;23.27;20.77;;;12.50;99.90;;;;;;5093928;28;20373;-39
2021/05/01 08:25:05;;;;;;;23.17;20.35;;;12.70;99.90;;;;;;5092943;28;20206;-40
2021/05/01 08:27:33;;;;;;;24.10;21.52;;;12.90;99.90;;;;;;5093238;28;20637;-41
2021/05/01 08:30:01;;;;;;;23.88;21.42;;;13.20;99.90;;;;;;5093302;28;20206;-41
2021/05/01 08:32:27;;;;;;;26.48;23.45;;;13.30;99.90;;;;;;5093124;28;20293;-41
2021/05/01 08:34:55;;;;;;;22.50;20.20;;;13.30;99.90;;;;;;5093136;28;20202;-41
2021/05/01 08:37:22;;;;;;;23.10;20.70;;;13.30;99.90;;;;;;5093325;28;20203;-41
2021/05/01 08:39:49;;;;;;;22.65;20.45;;;13.30;99.90;;;;;;5093122;28;20282;-41
2021/05/01 08:42:16;;;;;;;24.83;22.25;;;13.50;99.90;;;;;;5093156;28;20309;-41
2021/05/01 08:44:44;;;;;;;23.05;20.23;;;13.70;99.90;;;;;;5093139;28;20681;-41
2021/05/01 08:47:12;;;;;;;20.52;18.52;;;13.70;99.80;;;;;;5092823;28;20280;-41
2021/05/01 08:49:40;;;;;;;21.48;19.33;;;13.70;99.70;;;;;;5092945;28;20206;-40
2021/05/01 08:52:09;;;;;;;22.92;20.70;;;13.70;99.70;;;;;;5092943;28;20720;-41
2021/05/01 08:54:36;;;;;;;21.00;18.90;;;13.70;99.70;;;;;;5092987;28;20242;-41
2021/05/01 08:57:24;;;;;;;21.67;19.58;;;13.70;99.60;;;;;;5092818;28;20203;-40
2021/05/01 08:59:51;;;;;;;25.95;23.33;;;13.70;99.50;;;;;;5092577;28;20305;-40
2021/05/01 09:02:21;;;;;;;23.58;21.25;;;13.70;99.40;;;;;;5092880;28;20298;-40
2021/05/01 09:04:49;;;;;;;23.63;21.23;;;13.70;99.40;;;;;;5092953;28;20307;-40
2021/05/01 09:07:18;;;;;;;23.80;21.40;;;13.80;99.40;;;;;;5092996;28;20334;-40
2021/05/01 09:09:53;;;;;;;23.38;21.13;;;13.70;99.60;;;;;;5092973;28;20248;-39
2021/05/01 09:12:43;;;;;;;23.65;21.25;;;13.80;99.60;;;;;;5093113;28;20293;-40
2021/05/01 09:15:12;;;;;;;22.73;20.52;;;13.90;99.20;;;;;;5093626;28;20554;-40
2021/05/01 09:17:41;;;;;;;26.95;24.13;;;13.90;99.10;;;;;;5093578;28;20207;-41
2021/05/01 09:20:10;;;;;;;25.23;22.63;;;14.00;99.00;;;;;;5093645;28;20220;-41
2021/05/01 09:22:58;;;;;;;36.90;28.27;;;14.20;98.80;;;;;;5092401;28;20241;-42
2021/05/01 09:25:26;;;;;;;23.63;21.23;;;14.30;98.90;;;;;;5092091;28;20382;-42
2021/05/01 09:28:05;;;;;;;25.25;22.70;;;14.30;98.60;;;;;;5092439;28;20724;-41
2021/05/01 09:30:34;;;;;;;24.23;21.70;;;14.40;98.50;;;;;;5092421;28;20374;-41
2021/05/01 09:33:33;;;;;;;24.88;22.25;;;14.40;98.40;;;;;;5092177;28;20575;-41
2021/05/01 09:36:03;;;;;;;24.13;21.65;;;14.50;98.20;;;;;;5091592;28;20286;-41
2021/05/01 09:38:33;;;;;;;25.23;22.52;;;14.50;98.20;;;;;;5092350;28;20210;-41
2021/05/01 09:41:08;;;;;;;24.42;21.92;;;14.50;98.10;;;;;;5092247;28;20697;-41
2021/05/01 09:43:35;;;;;;;24.65;22.05;;;14.50;98.20;;;;;;5092242;28;20297;-41
2021/05/01 09:46:14;;;;;;;22.60;20.27;;;14.40;98.20;;;;;;5092180;28;20688;-42
2021/05/01 09:48:42;;;;;;;23.90;21.40;;;14.50;98.10;;;;;;5092476;28;20210;-40
2021/05/01 09:51:09;;;;;;;23.80;20.92;;;14.50;98.20;;;;;;5092159;28;20517;-42
2021/05/01 09:53:39;;;;;;;22.85;20.52;;;14.60;98.00;;;;;;5092251;28;20259;-42
2021/05/01 09:56:12;;;;;;;21.20;19.00;;;14.60;97.80;;;;;;5092463;28;20278;-44
2021/05/01 09:58:53;;;;;;;22.13;19.80;;;14.60;97.70;;;;;;5092476;28;20206;-41
2021/05/01 10:01:20;;;;;;;20.73;18.63;;;14.70;97.60;;;;;;5092050;28;20233;-41
2021/05/01 10:03:48;;;;;;;21.13;18.98;;;14.80;97.40;;;;;;5091864;28;20603;-42
2021/05/01 10:06:19;;;;;;;22.13;18.92;;;14.80;97.30;;;;;;5091637;28;20230;-41
2021/05/01 10:08:53;;;;;;;23.65;21.25;;;14.70;97.40;;;;;;5091676;28;20486;-41
2021/05/01 10:11:22;;;;;;;21.27;19.08;;;14.50;97.80;;;;;;5092288;28;20232;-41
2021/05/01 10:13:52;;;;;;;22.50;20.17;;;14.20;98.10;;;;;;5091922;28;20245;-41
2021/05/01 10:16:20;;;;;;;21.85;19.65;;;14.00;98.40;;;;;;5092120;28;20203;-41
2021/05/01 10:19:08;;;;;;;19.40;17.48;;;13.90;98.50;;;;;;5091828;28;20215;-41
2021/05/01 10:21:37;;;;;;;18.00;16.20;;;13.80;98.60;;;;;;5091877;28;20294;-41
2021/05/01 10:24:04;;;;;;;19.30;17.42;;;13.70;98.70;;;;;;5091865;28;20206;-41
2021/05/01 10:26:46;;;;;;;19.58;17.58;;;13.60;98.80;;;;;;5091619;28;20343;-41
2021/05/01 10:29:29;;;;;;;18.75;16.80;;;13.60;98.70;;;;;;5091371;28;20221;-41
2021/05/01 10:31:57;;;;;;;21.58;19.30;;;13.70;98.70;;;;;;5091795;28;20622;-41
2021/05/01 10:34:27;;;;;;;22.70;19.17;;;13.70;98.60;;;;;;5091612;28;20210;-41
2021/05/01 10:36:58;;;;;;;21.17;18.80;;;13.80;98.40;;;;;;5091605;28;20339;-41
2021/05/01 10:39:25;;;;;;;21.60;19.33;;;14.00;98.30;;;;;;5091836;28;20230;-41
2021/05/01 10:42:00;;;;;;;23.15;20.77;;;14.00;98.20;;;;;;5091672;28;20741;-43
2021/05/01 10:44:27;;;;;;;21.50;19.30;;;14.00;98.20;;;;;;5091557;28;20351;-42
2021/05/01 10:47:09;;;;;;;21.30;19.02;;;14.00;98.20;;;;;;5093075;28;20226;-42
2021/05/01 10:49:40;;;;;;;20.20;18.10;;;13.90;98.10;;;;;;5095807;28;20211;-41
2021/05/01 10:52:15;;;;;;;21.25;19.08;;;13.80;98.50;;;;;;5095583;28;20238;-41
2021/05/01 10:54:59;;;;;;;22.55;19.95;;;14.00;98.40;;;;;;5095975;28;20282;-42
2021/05/01 10:57:27;;;;;;;22.80;20.15;;;14.10;98.10;;;;;;5095574;28;20559;-42
2021/05/01 10:59:58;;;;;;;24.33;21.25;;;14.20;98.00;;;;;;5095644;28;20297;-43
2021/05/01 11:02:33;;;;;;;25.40;22.80;;;14.20;97.90;;;;;;5095308;28;20297;-42
2021/05/01 11:05:04;;;;;;;24.13;21.02;;;14.20;98.20;;;;;;5095277;28;20220;-45
2021/05/01 11:07:46;;;;;;;25.77;22.15;;;14.20;98.10;;;;;;5095219;28;20683;-43
2021/05/01 11:10:15;;;;;;;25.13;22.63;;;14.20;98.10;;;;;;5095248;28;20246;-43
2021/05/01 11:12:51;;;;;;;23.05;20.70;;;14.10;98.30;;;;;;5095297;28;20203;-42
2021/05/01 11:15:20;;;;;;;23.20;20.65;;;14.20;98.10;;;;;;5095121;28;20729;-42
2021/05/01 11:17:52;;;;;;;23.52;21.08;;;14.30;98.10;;;;;;5095161;28;20661;-45
2021/05/01 11:20:22;;;;;;;25.27;22.70;;;14.50;97.80;;;;;;5095044;28;20576;-41
2021/05/01 11:22:51;;;;;;;24.45;22.05;;;14.60;97.60;;;;;;5095157;28;20297;-42
2021/05/01 11:25:23;;;;;;;23.33;20.95;;;14.60;97.40;;;;;;5094943;28;20589;-42
2021/05/01 11:27:51;;;;;;;21.10;19.02;;;14.50;97.50;;;;;;5094607;28;20262;-42
2021/05/01 11:30:20;;;;;;;19.88;18.08;;;14.40;97.70;;;;;;5095123;28;20252;-42
2021/05/01 11:32:48;;;;;;;21.20;18.98;;;14.40;97.60;;;;;;5095025;28;20211;-43
2021/05/01 11:35:17;;;;;;;20.55;18.42;;;14.60;97.30;;;;;;5094789;28;20238;-44
2021/05/01 11:37:48;;;;;;;20.33;18.50;;;14.70;97.10;;;;;;5094896;28;20307;-44
2021/05/01 11:40:18;;;;;;;20.75;18.67;;;14.90;96.90;;;;;;5095129;28;20195;-41
2021/05/01 11:42:47;;;;;;;19.08;17.17;;;14.90;96.60;;;;;;5095396;28;20298;-42
2021/05/01 11:45:17;;;;;;;19.20;17.38;;;14.90;96.80;;;;;;5094881;28;20207;-41
2021/05/01 11:47:49;;;;;;;19.65;17.80;;;14.80;96.80;;;;;;5094527;28;20242;-41
2021/05/01 11:50:17;;;;;;;19.67;17.63;;;14.80;96.80;;;;;;5094658;28;20297;-40
2021/05/01 11:52:59;;;;;;;18.02;16.30;;;14.80;96.90;;;;;;5094497;28;20310;-41
2021/05/01 11:55:28;;;;;;;17.55;15.88;;;14.70;97.00;;;;;;5094815;28;20209;-42
2021/05/01 11:57:57;;;;;;;17.48;15.85;;;14.70;97.00;;;;;;5094050;28;20203;-41
2021/05/01 12:00:33;;;;;;;17.42;15.73;;;14.80;96.90;;;;;;5094133;28;20246;-41
2021/05/01 12:03:01;;;;;;;19.33;17.42;;;14.70;97.00;;;;;;5094089;28;20256;-43
2021/05/01 12:05:34;;;;;;;19.50;17.48;;;14.60;97.10;;;;;;5094056;28;20321;-41
2021/05/01 12:08:15;;;;;;;17.63;15.82;;;14.50;97.20;;;;;;5094581;28;20226;-41
2021/05/01 12:10:44;;;;;;;16.98;15.35;;;14.20;97.50;;;;;;5094210;28;20685;-41
2021/05/01 12:13:16;;;;;;;16.50;14.82;;;14.10;97.70;;;;;;5094376;28;20242;-41
2021/05/01 12:15:48;;;;;;;18.13;16.33;;;14.00;97.70;;;;;;5094115;28;20207;-42
2021/05/01 12:18:16;;;;;;;15.75;14.07;;;14.00;97.80;;;;;;5094384;28;20660;-41
2021/05/01 12:20:44;;;;;;;16.33;14.68;;;13.90;97.80;;;;;;5094223;28;20602;-42
2021/05/01 12:23:13;;;;;;;16.42;14.82;;;13.90;97.80;;;;;;5094002;28;20293;-42
2021/05/01 12:25:46;;;;;;;20.05;17.95;;;13.90;97.90;;;;;;5093897;28;20210;-44
2021/05/01 12:28:13;;;;;;;18.77;16.98;;;13.80;98.00;;;;;;5094158;28;20238;-42
2021/05/01 12:31:01;;;;;;;17.40;15.70;;;13.70;98.20;;;;;;5094173;28;20234;-41
2021/05/01 12:33:55;;;;;;;17.90;16.35;;;13.70;98.20;;;;;;5093993;28;20680;-44
2021/05/01 12:36:28;;;;;;;22.95;20.75;;;13.80;98.30;;;;;;5093784;28;20726;-41
2021/05/01 12:38:57;;;;;;;18.65;16.85;;;13.70;98.40;;;;;;5093930;28;20202;-41
2021/05/01 12:41:37;;;;;;;18.88;17.00;;;13.70;98.50;;;;;;5094045;28;20664;-43